Time;durP1;ratioP1;P1;durP2;ratioP2;P2;SDS_P1;SDS_P2;PMS_P1;PMS_P2;Temp;Humidity;BMP_temperature;BMP_pressure;BME280_temperature;BME280_humidity;BME280_pressure;Samples;Min_cycle;Max_cycle;Signal;HPM_P1;HPM_P2
2023/08/03 04:34:07;;;;;;;9.63;3.90;;;;;;;21.08;85.25;99492.97;5614350;31;76174;-62
2023/08/03 04:37:11;;;;;;;6.32;3.50;;;;;;;21.08;85.25;99492.97;5603665;31;33478;-62
2023/08/03 04:40:13;;;;;;;6.45;3.80;;;;;;;20.63;90.02;99486.62;5603661;31;33278;-62
2023/08/03 04:43:16;;;;;;;6.00;3.62;;;;;;;20.71;90.21;99490.97;5603529;31;33510;-62
2023/08/03 04:46:19;;;;;;;7.28;3.78;;;;;;;20.80;83.56;99486.03;5602449;31;34280;-62
2023/08/03 04:49:25;;;;;;;5.62;3.37;;;;;;;20.93;90.06;99488.53;5603636;31;34254;-62
2023/08/03 04:52:28;;;;;;;8.37;3.87;;;;;;;20.98;87.87;99469.13;5595537;31;32158;-62
2023/08/03 04:55:30;;;;;;;8.32;3.60;;;;;;;21.06;85.60;99471.56;5603229;31;34050;-62
2023/08/03 04:58:33;;;;;;;5.30;3.80;;;;;;;21.08;82.87;99477.41;5603513;31;33689;-63
2023/08/03 05:01:36;;;;;;;5.78;3.87;;;;;;;21.07;83.11;99486.75;5603318;31;33523;-63
2023/08/03 05:04:38;;;;;;;7.72;3.80;;;;;;;21.22;80.97;99495.84;5602912;31;33619;-62
2023/08/03 05:07:42;;;;;;;8.40;4.10;;;;;;;21.37;94.18;99485.91;5603478;31;33271;-63
2023/08/03 05:10:44;;;;;;;9.27;4.53;;;;;;;21.32;86.22;99487.03;5603472;31;34220;-63
2023/08/03 05:13:47;;;;;;;10.10;4.47;;;;;;;21.31;83.19;99487.38;5599496;31;33559;-62
2023/08/03 05:16:49;;;;;;;6.35;3.85;;;;;;;21.38;84.33;99478.53;5583683;32;33662;-62
2023/08/03 05:19:52;;;;;;;10.35;4.85;;;;;;;21.48;88.07;99492.25;5583660;32;33501;-62
2023/08/03 05:22:54;;;;;;;8.82;5.28;;;;;;;21.43;86.85;99484.44;5582671;32;33685;-63
2023/08/03 05:25:57;;;;;;;19.65;4.95;;;;;;;21.52;83.42;99492.28;5583557;31;33571;-63
2023/08/03 05:28:59;;;;;;;12.80;4.53;;;;;;;21.61;86.54;99489.25;5583558;31;33627;-63
2023/08/03 05:32:03;;;;;;;19.20;6.03;;;;;;;21.79;89.75;99488.25;5582645;32;33685;-63
2023/08/03 05:35:06;;;;;;;9.23;4.70;;;;;;;21.89;83.59;99484.06;5582391;31;33662;-63
2023/08/03 05:38:09;;;;;;;10.13;5.05;;;;;;;22.16;89.81;99486.62;5583478;32;33697;-63
2023/08/03 05:41:16;;;;;;;38.72;5.75;;;;;;;22.25;80.44;99492.50;5583485;31;33747;-63
2023/08/03 05:44:18;;;;;;;7.40;4.40;;;;;;;22.43;79.51;99490.66;5575108;32;33639;-63
2023/08/03 05:47:20;;;;;;;6.10;3.60;;;;;;;22.52;77.91;99485.66;5570434;32;33739;-62
2023/08/03 05:50:23;;;;;;;8.60;4.18;;;;;;;22.75;90.79;99495.53;5570316;32;33720;-62
2023/08/03 05:53:25;;;;;;;6.10;3.80;;;;;;;22.89;80.04;99490.13;5570025;32;34216;-62
2023/08/03 05:56:28;;;;;;;5.55;4.00;;;;;;;22.93;76.88;99488.19;5570211;32;34385;-62
2023/08/03 05:59:30;;;;;;;7.95;4.00;;;;;;;23.12;85.05;99498.03;5570221;32;33689;-62
2023/08/03 06:02:33;;;;;;;5.78;3.70;;;;;;;23.12;77.42;99491.78;5570118;32;34099;-62
2023/08/03 06:05:43;;;;;;;7.97;4.32;;;;;;;23.30;84.34;99487.12;5569499;32;33616;-62
2023/08/03 06:08:50;;;;;;;22.27;4.68;;;;;;;23.32;77.33;99493.00;5569901;32;33623;-61
2023/08/03 06:11:53;;;;;;;7.85;3.97;;;;;;;23.50;78.43;99498.50;5569960;32;33708;-62
2023/08/03 06:14:55;;;;;;;7.10;3.62;;;;;;;23.76;81.08;99497.37;5570095;32;33424;-62
2023/08/03 06:18:05;;;;;;;7.85;3.97;;;;;;;23.84;80.60;99500.88;5569737;32;33640;-62
2023/08/03 06:21:07;;;;;;;6.18;4.20;;;;;;;23.90;76.87;99507.53;5570114;32;33593;-62
2023/08/03 06:24:10;;;;;;;6.75;4.07;;;;;;;24.02;75.37;99498.94;5569539;32;34348;-61
2023/08/03 06:27:12;;;;;;;21.33;4.62;;;;;;;24.01;74.23;99502.06;5570172;32;34376;-61
2023/08/03 06:30:17;;;;;;;13.32;4.72;;;;;;;24.10;74.33;99500.47;5569615;32;33595;-61
2023/08/03 06:33:23;;;;;;;5.80;3.58;;;;;;;24.17;73.84;99499.69;5569727;32;34401;-62
2023/08/03 06:36:27;;;;;;;25.92;4.68;;;;;;;24.23;72.32;99502.81;5563669;32;33665;-62
2023/08/03 06:39:29;;;;;;;10.70;4.15;;;;;;;24.40;76.12;99510.22;5558702;32;33631;-62
2023/08/03 06:42:31;;;;;;;35.67;5.15;;;;;;;24.49;71.34;99504.38;5569780;32;33601;-62
2023/08/03 06:45:34;;;;;;;11.10;4.93;;;;;;;24.50;75.08;99508.66;5569874;32;34082;-63
2023/08/03 06:48:37;;;;;;;8.35;4.82;;;;;;;24.50;75.66;99500.44;5569152;32;34331;-62
2023/08/03 06:51:40;;;;;;;25.90;4.97;;;;;;;24.39;73.71;99497.69;5569181;32;33703;-62
2023/08/03 06:54:42;;;;;;;6.80;4.75;;;;;;;24.30;75.63;99508.28;5568593;32;33628;-62
2023/08/03 06:57:45;;;;;;;22.90;5.05;;;;;;;24.12;72.25;99513.78;5569428;32;33693;-62
2023/08/03 07:00:48;;;;;;;9.75;4.43;;;;;;;24.10;75.80;99519.66;5559101;32;33573;-63
2023/08/03 07:03:50;;;;;;;7.32;3.80;;;;;;;23.96;72.22;99521.63;5569541;32;33577;-63
2023/08/03 07:06:53;;;;;;;6.70;4.32;;;;;;;23.99;73.53;99523.56;5569298;32;34336;-63
2023/08/03 07:09:55;;;;;;;9.75;4.45;;;;;;;23.90;73.52;99532.94;5569154;32;33596;-62
2023/08/03 07:12:58;;;;;;;9.02;4.15;;;;;;;23.86;73.93;99536.87;5569502;32;33728;-63
2023/08/03 07:16:07;;;;;;;6.30;4.40;;;;;;;23.86;74.51;99540.38;5569118;31;33795;-63
2023/08/03 07:19:12;;;;;;;8.18;4.93;;;;;;;23.72;73.78;99532.16;5569675;32;34300;-63
2023/08/03 07:22:14;;;;;;;7.07;4.30;;;;;;;23.75;74.10;99536.09;5569554;32;33560;-63
2023/08/03 07:25:17;;;;;;;6.00;4.60;;;;;;;23.70;74.38;99548.19;5569176;32;33985;-63
2023/08/03 07:28:19;;;;;;;8.15;4.50;;;;;;;23.73;74.72;99544.66;5568717;32;33702;-62
2023/08/03 07:31:22;;;;;;;7.45;4.28;;;;;;;23.75;75.54;99547.03;5569126;32;33653;-63
2023/08/03 07:34:24;;;;;;;8.15;4.60;;;;;;;23.70;74.18;99553.66;5569171;32;33627;-63
2023/08/03 07:37:27;;;;;;;5.07;4.32;;;;;;;23.68;74.38;99554.06;5569199;32;34421;-63
2023/08/03 07:40:29;;;;;;;79.32;9.18;;;;;;;23.63;75.11;99559.09;5558693;32;34560;-62
2023/08/03 07:43:31;;;;;;;9.25;4.90;;;;;;;23.65;75.89;99552.06;5549874;32;33618;-63
2023/08/03 07:46:33;;;;;;;157.48;14.02;;;;;;;23.57;75.11;99569.63;5549632;32;33632;-63
2023/08/03 07:49:36;;;;;;;14.63;5.50;;;;;;;23.52;75.47;99580.19;5563639;32;34069;-61
2023/08/03 07:52:39;;;;;;;26.87;5.78;;;;;;;23.53;76.35;99573.53;5568941;32;34398;-64
2023/08/03 07:55:41;;;;;;;60.28;7.93;;;;;;;23.52;76.69;99594.63;5568940;32;34433;-62
2023/08/03 07:58:45;;;;;;;232.32;15.60;;;;;;;23.48;77.16;99587.56;5568477;32;34262;-63
2023/08/03 08:01:47;;;;;;;37.85;6.05;;;;;;;23.48;76.62;99591.13;5562826;32;34287;-62
2023/08/03 08:04:51;;;;;;;45.42;6.82;;;;;;;23.48;76.57;99588.38;5549040;32;33526;-63
2023/08/03 08:07:54;;;;;;;10.85;4.62;;;;;;;23.49;77.44;99589.94;5548980;32;33661;-63
2023/08/03 08:10:57;;;;;;;8.43;5.03;;;;;;;23.63;77.19;99594.66;5553178;32;34380;-63
2023/08/03 08:14:13;;;;;;;10.32;5.10;;;;;;;23.59;76.28;99591.91;5567362;32;33634;-63
2023/08/03 08:17:16;;;;;;;20.48;6.05;;;;;;;23.62;76.85;99591.16;5562407;32;33797;-63
2023/08/03 08:20:18;;;;;;;8.50;5.12;;;;;;;23.76;75.86;99603.31;5555044;32;34233;-63
2023/08/03 08:23:21;;;;;;;7.53;4.82;;;;;;;23.79;75.57;99603.31;5568414;32;33675;-63
2023/08/03 08:26:25;;;;;;;8.80;4.80;;;;;;;23.97;75.09;99608.03;5568664;32;33554;-63
2023/08/03 08:29:28;;;;;;;11.07;5.00;;;;;;;24.09;74.98;99613.13;5568484;32;33593;-63
2023/08/03 08:32:30;;;;;;;9.75;5.70;;;;;;;24.28;74.29;99620.97;5566448;32;34551;-63
2023/08/03 08:35:33;;;;;;;7.07;4.72;;;;;;;24.41;74.33;99615.91;5568620;32;34249;-63
2023/08/03 08:38:35;;;;;;;8.18;5.25;;;;;;;24.52;73.73;99627.66;5568451;32;33694;-63
2023/08/03 08:41:40;;;;;;;7.07;5.00;;;;;;;24.50;73.94;99621.78;5568129;32;33235;-63
2023/08/03 08:44:42;;;;;;;11.93;4.95;;;;;;;24.52;72.87;99627.66;5568301;32;33567;-63
2023/08/03 08:47:45;;;;;;;10.73;4.50;;;;;;;24.51;72.32;99619.84;5553643;32;33803;-63
2023/08/03 08:50:49;;;;;;;6.20;4.62;;;;;;;24.56;75.50;99617.47;5548935;32;34349;-63
2023/08/03 08:53:54;;;;;;;7.50;4.57;;;;;;;24.66;72.09;99624.09;5548667;32;34298;-63
2023/08/03 08:56:59;;;;;;;10.02;5.57;;;;;;;24.65;74.31;99619.03;5557962;32;33637;-63
2023/08/03 09:00:12;;;;;;;98.45;10.13;;;;;;;24.81;73.00;99625.66;5564111;32;33699;-63
2023/08/03 09:03:15;;;;;;;8.55;5.00;;;;;;;24.87;72.54;99634.25;5567964;32;33751;-63
2023/08/03 09:06:20;;;;;;;7.40;5.20;;;;;;;24.88;73.09;99630.34;5568084;32;34249;-63
2023/08/03 09:09:28;;;;;;;9.73;5.15;;;;;;;24.91;72.46;99631.50;5567985;32;34240;-63
2023/08/03 09:12:30;;;;;;;8.20;5.50;;;;;;;24.94;72.35;99630.72;5567959;32;33619;-63
2023/08/03 09:15:37;;;;;;;9.05;5.28;;;;;;;24.96;72.42;99642.06;5567815;32;34197;-63
2023/08/03 09:18:44;;;;;;;7.90;5.00;;;;;;;24.93;71.71;99635.41;5568418;32;33743;-63
2023/08/03 09:21:56;;;;;;;6.32;4.75;;;;;;;24.84;71.03;99624.88;5569964;32;33630;-65
2023/08/03 09:25:07;;;;;;;8.10;5.40;;;;;;;24.87;71.90;99630.72;5570652;32;33779;-65
2023/08/03 09:28:10;;;;;;;15.82;6.43;;;;;;;24.79;71.06;99629.97;5569225;32;34288;-65
2023/08/03 09:31:20;;;;;;;;;;;;;;;24.88;73.97;99629.56;5569304;32;34347;-65
2023/08/03 09:34:36;;;;;;;29.25;7.05;;;;;;;24.89;73.08;99642.06;5569509;32;34627;-65
2023/08/03 09:37:42;;;;;;;13.32;5.55;;;;;;;24.89;73.12;99642.84;5569570;32;33463;-65
2023/08/03 09:40:49;;;;;;;19.98;6.10;;;;;;;24.89;69.62;99648.34;5568046;32;33895;-65
2023/08/03 09:43:52;;;;;;;20.50;5.93;;;;;;;24.94;70.60;99650.69;5561574;32;33734;-65
2023/08/03 09:46:55;;;;;;;14.57;6.12;;;;;;;24.98;70.34;99653.44;5569369;32;33783;-65
2023/08/03 09:49:57;;;;;;;33.05;6.32;;;;;;;24.99;70.63;99653.00;5561053;32;32259;-65
